Time;durP1;ratioP1;P1;durP2;ratioP2;P2;SDS_P1;SDS_P2;PMS_P1;PMS_P2;Temp;Humidity;BMP_temperature;BMP_pressure;BME280_temperature;BME280_humidity;BME280_pressure;Samples;Min_cycle;Max_cycle;Signal;HPM_P1;HPM_P2
2021/12/13 00:01:03;;;;;;;95.03;24.77;;;9.80;99.90;;;;;;4975160;28;20506;-88
2021/12/13 00:03:39;;;;;;;87.40;22.90;;;9.80;99.90;;;;;;4974335;28;20511;-88
2021/12/13 00:06:24;;;;;;;62.45;19.70;;;9.80;99.90;;;;;;4975206;28;20112;-88
2021/12/13 00:08:53;;;;;;;75.70;21.38;;;9.80;99.90;;;;;;4990664;28;20046;-89
2021/12/13 00:11:24;;;;;;;66.45;20.05;;;9.80;99.90;;;;;;4975169;28;20038;-88
2021/12/13 00:14:10;;;;;;;74.05;21.20;;;9.80;99.90;;;;;;4959090;28;20182;-88
2021/12/13 00:16:42;;;;;;;65.43;20.10;;;9.80;99.90;;;;;;4975221;28;20042;-88
2021/12/13 00:19:23;;;;;;;80.82;22.33;;;9.80;99.90;;;;;;4960061;28;20164;-88
2021/12/13 00:21:57;;;;;;;73.30;22.75;;;9.80;99.90;;;;;;4990447;28;20455;-88
2021/12/13 00:24:36;;;;;;;64.40;21.38;;;9.80;99.90;;;;;;4975168;28;20108;-88
2021/12/13 00:27:11;;;;;;;86.53;23.13;;;9.80;99.90;;;;;;4974557;28;20108;-89
2021/12/13 00:29:53;;;;;;;82.45;23.27;;;9.80;99.90;;;;;;4974369;28;20042;-88
2021/12/13 00:32:28;;;;;;;63.30;21.52;;;9.80;99.90;;;;;;4974010;28;20109;-88
2021/12/13 00:35:12;;;;;;;65.65;21.85;;;10.10;99.90;;;;;;4974404;28;20050;-88
2021/12/13 00:37:43;;;;;;;69.57;21.75;;;9.80;99.90;;;;;;4974037;28;20053;-87
2021/12/13 00:40:25;;;;;;;72.68;22.60;;;9.80;99.90;;;;;;4974581;28;20052;-87
2021/12/13 00:42:59;;;;;;;68.22;21.98;;;9.80;99.90;;;;;;4989425;28;20046;-88
2021/12/13 00:45:38;;;;;;;;;;;9.80;99.90;;;;;;4974848;28;20054;-88
2021/12/13 00:48:06;;;;;;;77.50;24.15;;;9.80;99.90;;;;;;4957812;28;19937;-88
2021/12/13 00:50:53;;;;;;;79.57;24.08;;;10.20;99.90;;;;;;4973649;28;20101;-88
2021/12/13 00:53:21;;;;;;;78.47;24.73;;;9.80;99.90;;;;;;4990112;28;20153;-87
2021/12/13 00:55:48;;;;;;;78.28;25.63;;;10.00;99.90;;;;;;4990764;28;20941;-88
2021/12/13 00:58:25;;;;;;;82.57;26.02;;;9.80;99.90;;;;;;4972708;28;20046;-87
2021/12/13 01:00:58;;;;;;;90.05;26.40;;;9.70;99.90;;;;;;4973824;28;20046;-88
2021/12/13 01:03:46;;;;;;;87.57;25.92;;;9.80;99.90;;;;;;4972556;28;20072;-88
2021/12/13 01:06:57;;;;;;;76.97;25.77;;;9.80;99.90;;;;;;4973338;28;20109;-88
2021/12/13 01:09:45;;;;;;;80.50;24.88;;;9.80;99.90;;;;;;4973848;28;20053;-88
2021/12/13 01:12:17;;;;;;;80.57;25.48;;;9.80;99.90;;;;;;4972688;28;20104;-88
2021/12/13 01:14:57;;;;;;;77.88;24.25;;;9.80;99.90;;;;;;4974397;28;20106;-88
2021/12/13 01:17:36;;;;;;;79.80;25.50;;;10.00;99.90;;;;;;4973177;28;20054;-87
2021/12/13 01:20:23;;;;;;;74.03;24.13;;;9.80;99.90;;;;;;4973858;28;20053;-88
2021/12/13 01:22:56;;;;;;;88.63;26.40;;;9.80;99.90;;;;;;4973310;28;20046;-88
2021/12/13 01:25:45;;;;;;;72.28;24.77;;;9.80;99.90;;;;;;4972697;28;20066;-87
2021/12/13 01:28:20;;;;;;;83.82;26.73;;;9.80;99.90;;;;;;4964191;28;20138;-87
2021/12/13 01:30:53;;;;;;;91.30;26.33;;;9.90;99.90;;;;;;4954380;28;20078;-87
2021/12/13 01:33:20;;;;;;;89.95;26.23;;;10.40;99.90;;;;;;4952799;28;20125;-87
2021/12/13 01:35:56;;;;;;;109.90;29.15;;;9.80;99.90;;;;;;4953569;28;20047;-87
2021/12/13 01:38:32;;;;;;;90.03;26.02;;;9.80;99.90;;;;;;4953255;28;20138;-87
2021/12/13 01:41:14;;;;;;;90.32;25.90;;;9.80;99.90;;;;;;4954197;28;20130;-88
2021/12/13 01:43:45;;;;;;;72.22;20.92;;;9.90;99.90;;;;;;4969272;28;20038;-87
2021/12/13 01:46:11;;;;;;;82.53;24.00;;;9.90;99.90;;;;;;4953089;28;20046;-87
2021/12/13 01:48:47;;;;;;;92.50;25.42;;;9.80;99.90;;;;;;4953336;28;20045;-87
2021/12/13 01:51:16;;;;;;;81.80;23.40;;;9.80;99.90;;;;;;4953670;28;20054;-88
2021/12/13 01:53:48;;;;;;;67.63;21.30;;;9.80;99.90;;;;;;4952662;28;20134;-88
2021/12/13 02:02:14;;;;;;;55.45;19.48;;;10.20;99.90;;;;;;4953110;28;20577;-87
2021/12/13 02:04:40;;;;;;;59.60;19.70;;;9.90;99.90;;;;;;4953374;28;20046;-87
2021/12/13 02:07:08;;;;;;;68.68;19.90;;;10.20;99.90;;;;;;4952174;28;20046;-87
2021/12/13 02:09:40;;;;;;;77.03;21.30;;;9.90;99.90;;;;;;4969326;28;20137;-88
2021/12/13 02:12:12;;;;;;;63.00;21.00;;;9.90;99.90;;;;;;4953028;28;20051;-88
2021/12/13 02:14:48;;;;;;;64.32;19.98;;;9.80;99.90;;;;;;4969357;28;20069;-87
2021/12/13 02:17:21;;;;;;;64.45;21.35;;;10.00;99.90;;;;;;4936454;28;20053;-87
2021/12/13 02:19:59;;;;;;;65.47;21.73;;;9.80;99.90;;;;;;4953028;28;20047;-87
2021/12/13 02:22:33;;;;;;;61.03;21.45;;;9.90;99.90;;;;;;4952226;28;20086;-87
2021/12/13 02:25:18;;;;;;;74.13;24.20;;;9.80;99.90;;;;;;4953357;28;20051;-87
2021/12/13 02:27:50;;;;;;;75.80;24.38;;;9.90;99.90;;;;;;4957219;28;20054;-87
2021/12/13 02:30:26;;;;;;;70.38;22.67;;;9.90;99.90;;;;;;4956249;28;20478;-87
2021/12/13 02:32:52;;;;;;;64.43;23.45;;;9.90;99.90;;;;;;4971580;28;20109;-88
2021/12/13 02:35:20;;;;;;;73.28;24.15;;;10.00;99.90;;;;;;4971899;28;20050;-88
2021/12/13 02:37:47;;;;;;;77.40;24.92;;;10.20;99.90;;;;;;4955674;28;20084;-87
2021/12/13 02:40:27;;;;;;;75.05;25.35;;;9.90;99.90;;;;;;4956335;28;20038;-87
2021/12/13 02:42:53;;;;;;;76.65;24.88;;;9.90;99.90;;;;;;4955533;28;20057;-90
2021/12/13 02:45:26;;;;;;;78.70;26.55;;;10.10;99.90;;;;;;4966905;23;20081;-87
2021/12/13 02:47:54;;;;;;;;;;;9.90;99.90;;;;;;4970744;28;20157;-87
2021/12/13 02:50:29;;;;;;;78.55;26.33;;;9.90;99.90;;;;;;4971029;28;20281;-87
2021/12/13 02:52:57;;;;;;;57.65;23.98;;;9.80;99.90;;;;;;4971872;28;20486;-87
2021/12/13 02:55:28;;;;;;;74.72;27.85;;;9.80;99.90;;;;;;4955380;28;20047;-87
2021/12/13 02:58:02;;;;;;;74.95;26.92;;;10.00;99.90;;;;;;4971283;28;20053;-87
2021/12/13 03:00:31;;;;;;;71.82;27.13;;;9.90;99.90;;;;;;4971767;28;20410;-87
2021/12/13 03:02:59;;;;;;;70.80;26.08;;;9.80;99.90;;;;;;4953878;28;20042;-87
2021/12/13 03:05:33;;;;;;;75.88;27.23;;;9.80;99.90;;;;;;4971492;28;20081;-87
2021/12/13 03:08:09;;;;;;;78.43;26.88;;;9.90;99.90;;;;;;4971509;28;20396;-87
2021/12/13 03:10:40;;;;;;;79.70;25.73;;;9.80;99.90;;;;;;4970423;28;20500;-87
2021/12/13 03:13:07;;;;;;;69.32;25.83;;;9.80;99.90;;;;;;4972054;28;20053;-87
2021/12/13 03:15:40;;;;;;;84.68;27.35;;;9.80;99.90;;;;;;4971039;28;20490;-87
2021/12/13 03:18:12;;;;;;;66.30;25.13;;;9.80;99.90;;;;;;4954778;28;20383;-87
2021/12/13 03:21:07;;;;;;;72.80;25.33;;;9.70;99.90;;;;;;4971779;28;20136;-87
2021/12/13 03:23:51;;;;;;;82.13;26.15;;;9.70;99.90;;;;;;4971187;28;20069;-87
2021/12/13 03:26:26;;;;;;;62.88;24.38;;;9.70;99.90;;;;;;4971146;28;20069;-87
2021/12/13 03:29:01;;;;;;;78.13;25.70;;;9.70;99.90;;;;;;4971710;28;20056;-88
2021/12/13 03:31:35;;;;;;;70.97;25.92;;;9.70;99.90;;;;;;4970800;28;20050;-88
2021/12/13 03:34:11;;;;;;;76.95;26.55;;;9.70;99.90;;;;;;4970365;28;20054;-87
2021/12/13 03:36:46;;;;;;;77.95;25.75;;;9.80;99.90;;;;;;4971499;28;20038;-88
2021/12/13 03:39:17;;;;;;;68.32;24.88;;;9.70;99.90;;;;;;4970822;28;20054;-87
2021/12/13 03:41:46;;;;;;;57.67;23.90;;;9.90;99.90;;;;;;4970661;28;20542;-87
2021/12/13 03:44:17;;;;;;;65.88;24.30;;;9.70;99.90;;;;;;4971339;28;20054;-86
2021/12/13 03:46:45;;;;;;;70.05;24.35;;;9.70;99.90;;;;;;4970430;28;20050;-88
2021/12/13 03:49:11;;;;;;;61.28;24.05;;;9.60;99.90;;;;;;4971718;28;20556;-87
2021/12/13 03:51:42;;;;;;;58.83;22.05;;;9.60;99.90;;;;;;4971553;28;20426;-87
2021/12/13 03:54:11;;;;;;;67.00;22.75;;;10.10;99.90;;;;;;4971336;28;20043;-87
2021/12/13 03:56:48;;;;;;;55.13;20.50;;;9.60;99.90;;;;;;4971324;28;20042;-87
2021/12/13 03:59:19;;;;;;;47.13;20.27;;;9.50;99.90;;;;;;4972201;28;20057;-86
2021/12/13 04:01:50;;;;;;;63.83;22.65;;;9.60;99.90;;;;;;4974475;28;20129;-87
2021/12/13 04:04:25;;;;;;;67.18;21.17;;;9.60;99.90;;;;;;4974650;28;20073;-88
2021/12/13 04:06:56;;;;;;;46.03;19.27;;;9.50;99.90;;;;;;4973625;28;20134;-88
2021/12/13 04:09:25;;;;;;;63.50;19.60;;;10.40;99.90;;;;;;4974574;28;20057;-87
2021/12/13 04:12:00;;;;;;;48.28;17.15;;;9.70;99.90;;;;;;4974224;28;20520;-88
2021/12/13 04:14:34;;;;;;;46.90;17.55;;;8.90;99.90;;;;;;4974137;28;20105;-87
2021/12/13 04:17:21;;;;;;;53.95;16.90;;;9.50;99.90;;;;;;4973916;28;20042;-88
2021/12/13 04:19:56;;;;;;;38.58;14.40;;;9.50;99.90;;;;;;4974680;28;20096;-88
2021/12/13 04:22:36;;;;;;;43.85;14.30;;;9.40;99.90;;;;;;4973810;28;20089;-87
2021/12/13 04:25:08;;;;;;;38.40;14.02;;;9.40;99.90;;;;;;4974646;28;20052;-87
2021/12/13 04:27:55;;;;;;;44.17;13.83;;;9.40;99.90;;;;;;4972865;28;20050;-88
2021/12/13 04:30:34;;;;;;;37.65;14.15;;;8.60;99.90;;;;;;4974065;28;20046;-88
2021/12/13 04:33:10;;;;;;;40.47;12.90;;;9.40;99.90;;;;;;4973676;28;20046;-87
2021/12/13 04:35:37;;;;;;;39.00;14.23;;;10.10;99.90;;;;;;4973536;28;20100;-88
2021/12/13 04:38:12;;;;;;;41.22;13.45;;;9.40;99.90;;;;;;4974131;28;20286;-87
2021/12/13 04:40:40;;;;;;;35.53;12.90;;;9.40;99.90;;;;;;4974036;28;20050;-88
2021/12/13 04:43:11;;;;;;;30.55;12.88;;;9.50;99.90;;;;;;4973505;28;20046;-88
2021/12/13 04:45:49;;;;;;;28.50;11.02;;;9.40;99.90;;;;;;4973520;28;20054;-88
2021/12/13 04:48:20;;;;;;;32.45;11.80;;;9.40;99.90;;;;;;4972864;28;20517;-87
2021/12/13 04:50:57;;;;;;;28.70;10.63;;;9.40;99.90;;;;;;4973610;28;20045;-88
2021/12/13 04:53:37;;;;;;;23.05;10.05;;;9.40;99.90;;;;;;4974215;28;20073;-88
2021/12/13 04:56:10;;;;;;;22.63;9.85;;;9.10;99.90;;;;;;4973690;28;20046;-88
2021/12/13 04:58:52;;;;;;;20.88;8.90;;;9.40;99.90;;;;;;4973615;28;20050;-88
2021/12/13 05:01:20;;;;;;;20.90;8.48;;;9.40;99.90;;;;;;4973824;28;20042;-88
2021/12/13 05:03:50;;;;;;;20.15;8.80;;;9.80;99.90;;;;;;4972550;28;20047;-88
2021/12/13 05:06:22;;;;;;;18.52;7.32;;;9.60;99.90;;;;;;4974093;28;20046;-88
2021/12/13 05:09:03;;;;;;;16.10;6.82;;;9.70;99.90;;;;;;4974007;28;20046;-88
2021/12/13 05:11:33;;;;;;;19.83;6.93;;;10.10;99.90;;;;;;4972088;28;20038;-89
2021/12/13 05:13:59;;;;;;;17.30;6.55;;;9.60;99.90;;;;;;4973476;28;20046;-88
2021/12/13 05:16:46;;;;;;;15.95;6.18;;;9.30;99.90;;;;;;4973993;28;20046;-88
2021/12/13 05:19:15;;;;;;;16.15;6.20;;;9.90;99.90;;;;;;4974112;28;20046;-88
2021/12/13 05:21:57;;;;;;;21.25;5.82;;;9.30;99.90;;;;;;4973103;28;20443;-87
2021/12/13 05:24:28;;;;;;;13.65;6.13;;;9.30;99.90;;;;;;4972426;28;20057;-87
2021/12/13 05:27:04;;;;;;;19.15;5.75;;;9.50;99.90;;;;;;4973541;28;20105;-88
2021/12/13 05:29:40;;;;;;;13.73;6.53;;;9.30;99.90;;;;;;4973353;28;20478;-88
2021/12/13 05:32:11;;;;;;;19.38;7.43;;;9.30;99.90;;;;;;4972126;28;20059;-93
2021/12/13 05:34:50;;;;;;;10.35;5.40;;;9.30;99.90;;;;;;4957749;28;20078;-87
2021/12/13 05:37:17;;;;;;;13.00;4.90;;;9.30;99.90;;;;;;4970147;28;20043;-88
2021/12/13 05:40:00;;;;;;;15.75;4.15;;;9.30;99.90;;;;;;4956791;28;20042;-88
2021/12/13 05:42:42;;;;;;;17.60;4.68;;;9.30;99.90;;;;;;4973364;28;20050;-88
2021/12/13 05:45:13;;;;;;;14.15;5.20;;;9.30;99.90;;;;;;4969624;28;20565;-88
2021/12/13 05:47:52;;;;;;;9.13;4.20;;;9.90;99.90;;;;;;4953235;28;20054;-88
2021/12/13 05:50:33;;;;;;;14.93;5.13;;;10.00;99.90;;;;;;4953986;28;20046;-88
2021/12/13 05:53:12;;;;;;;15.25;4.85;;;9.20;99.90;;;;;;4969386;28;20082;-88
2021/12/13 05:55:57;;;;;;;10.80;4.68;;;9.20;99.90;;;;;;4969852;28;20046;-88
2021/12/13 05:58:31;;;;;;;11.30;5.20;;;9.20;99.90;;;;;;4954030;28;20047;-89
2021/12/13 06:00:59;;;;;;;16.02;6.05;;;9.20;99.90;;;;;;4953571;28;20057;-88
2021/12/13 06:03:33;;;;;;;14.40;5.22;;;9.20;99.90;;;;;;4953015;28;20046;-87
2021/12/13 06:06:07;;;;;;;15.70;6.07;;;10.10;99.90;;;;;;4953418;28;20126;-88
2021/12/13 06:08:49;;;;;;;21.70;6.43;;;9.20;99.90;;;;;;4953188;28;20054;-88
2021/12/13 06:11:19;;;;;;;13.43;5.88;;;9.10;99.90;;;;;;4954107;28;20039;-88
2021/12/13 06:13:56;;;;;;;16.60;7.10;;;10.00;99.90;;;;;;4952612;28;20047;-88
2021/12/13 06:16:26;;;;;;;17.55;6.35;;;9.20;99.90;;;;;;4969816;28;20050;-88
2021/12/13 06:18:57;;;;;;;18.55;7.50;;;9.50;99.90;;;;;;4968153;28;20055;-88
2021/12/13 06:21:34;;;;;;;19.80;7.32;;;9.40;99.90;;;;;;4968655;28;20109;-88
2021/12/13 06:24:00;;;;;;;20.85;8.20;;;9.20;99.90;;;;;;4953721;28;20046;-88
2021/12/13 06:26:29;;;;;;;21.98;8.48;;;9.10;99.90;;;;;;4969074;28;20047;-88
2021/12/13 06:29:02;;;;;;;19.50;7.72;;;9.10;99.90;;;;;;4968769;28;20129;-89
2021/12/13 06:31:37;;;;;;;;;;;9.30;99.90;;;;;;4968993;28;20058;-87
2021/12/13 06:34:08;;;;;;;17.98;7.32;;;9.10;99.90;;;;;;4967926;28;20381;-87
2021/12/13 06:36:40;;;;;;;28.23;9.60;;;9.10;99.90;;;;;;4969044;28;20057;-88
2021/12/13 06:39:10;;;;;;;22.93;8.13;;;9.30;99.90;;;;;;4969459;28;20034;-88
2021/12/13 06:41:41;;;;;;;21.48;8.93;;;9.10;99.90;;;;;;4968613;28;20054;-88
2021/12/13 06:44:17;;;;;;;22.30;9.25;;;9.10;99.90;;;;;;4976351;28;20046;-88
2021/12/13 06:46:45;;;;;;;17.80;9.30;;;9.40;99.90;;;;;;4971399;28;20093;-87
2021/12/13 06:49:20;;;;;;;18.33;9.27;;;9.40;99.90;;;;;;4971356;28;20053;-87
2021/12/13 06:51:56;;;;;;;22.55;9.95;;;9.00;99.90;;;;;;4971511;28;20053;-88
2021/12/13 06:54:28;;;;;;;20.10;8.68;;;9.00;99.90;;;;;;4972665;28;20042;-88
2021/12/13 06:57:10;;;;;;;21.60;9.40;;;9.00;99.90;;;;;;4971907;28;20112;-88
2021/12/13 06:59:48;;;;;;;19.58;9.07;;;9.00;99.90;;;;;;4972470;28;20113;-88
2021/12/13 07:02:21;;;;;;;20.85;10.13;;;9.00;99.90;;;;;;4970588;28;20060;-89
2021/12/13 07:05:02;;;;;;;20.33;8.23;;;9.00;99.90;;;;;;4971771;28;20129;-87
2021/12/13 07:07:55;;;;;;;17.40;8.55;;;9.00;99.90;;;;;;4971436;28;20050;-87
2021/12/13 07:10:35;;;;;;;20.47;9.80;;;9.20;99.90;;;;;;4971366;28;20054;-88
2021/12/13 07:13:06;;;;;;;18.17;9.60;;;9.00;99.90;;;;;;4972296;28;20078;-87
2021/12/13 07:16:05;;;;;;;23.25;8.45;;;9.80;99.90;;;;;;4971169;28;20220;-88
2021/12/13 07:18:53;;;;;;;17.63;8.80;;;9.00;99.90;;;;;;4945054;28;20061;-87
2021/12/13 07:21:30;;;;;;;19.05;8.82;;;9.00;99.90;;;;;;4971713;28;20471;-87
2021/12/13 07:24:08;;;;;;;19.13;8.73;;;9.00;99.90;;;;;;4971036;28;20068;-88
2021/12/13 07:26:38;;;;;;;19.08;9.32;;;9.00;99.90;;;;;;4971865;28;20046;-88
2021/12/13 07:29:19;;;;;;;19.70;10.23;;;9.00;99.90;;;;;;4971706;28;20190;-87
2021/12/13 07:31:59;;;;;;;25.50;10.20;;;9.00;99.90;;;;;;4970598;28;20376;-88
2021/12/13 07:34:25;;;;;;;18.00;9.88;;;9.00;99.90;;;;;;4973397;28;20462;-89
2021/12/13 07:37:00;;;;;;;15.43;9.45;;;9.00;99.90;;;;;;4975758;28;20108;-88
2021/12/13 07:39:29;;;;;;;24.15;10.98;;;9.90;99.90;;;;;;4974098;28;20093;-89
2021/12/13 07:42:01;;;;;;;21.38;10.85;;;9.00;99.90;;;;;;4975650;28;20053;-87
2021/12/13 07:44:31;;;;;;;20.63;10.80;;;9.00;99.90;;;;;;4974792;28;20056;-88
2021/12/13 07:47:01;;;;;;;17.90;10.73;;;9.00;99.90;;;;;;4974885;28;20054;-89
2021/12/13 07:49:32;;;;;;;26.05;11.18;;;9.30;99.90;;;;;;4975325;28;20049;-88
2021/12/13 07:52:24;;;;;;;22.75;11.20;;;9.00;99.90;;;;;;4975248;28;20090;-89
2021/12/13 07:54:59;;;;;;;20.95;11.60;;;9.00;99.90;;;;;;4975178;28;20042;-88
2021/12/13 07:57:32;;;;;;;24.15;12.15;;;8.90;99.90;;;;;;4975070;28;20088;-88
2021/12/13 07:59:59;;;;;;;24.38;11.77;;;9.20;99.90;;;;;;4974669;28;20050;-87
2021/12/13 08:02:39;;;;;;;23.00;11.88;;;9.80;99.90;;;;;;4973932;28;20043;-89
2021/12/13 08:05:11;;;;;;;19.17;12.10;;;8.90;99.90;;;;;;4975119;28;20088;-88
2021/12/13 08:07:59;;;;;;;23.73;12.48;;;9.00;99.90;;;;;;4974934;28;20052;-88
2021/12/13 08:10:28;;;;;;;22.52;12.23;;;8.90;99.90;;;;;;4975045;28;20050;-89
2021/12/13 08:13:06;;;;;;;24.80;13.43;;;10.00;99.90;;;;;;4974650;28;20050;-88
2021/12/13 08:15:39;;;;;;;20.27;13.07;;;9.50;99.90;;;;;;4974873;28;20050;-88
2021/12/13 08:18:28;;;;;;;23.98;13.13;;;9.00;99.90;;;;;;4973966;28;20049;-88
2021/12/13 08:20:58;;;;;;;25.33;13.48;;;9.00;99.90;;;;;;4974101;28;20133;-88
2021/12/13 08:23:47;;;;;;;26.52;12.80;;;9.00;99.90;;;;;;4976626;28;20050;-89
2021/12/13 08:26:17;;;;;;;28.35;14.25;;;8.60;99.90;;;;;;4974613;28;20457;-89
2021/12/13 08:28:48;;;;;;;24.85;14.70;;;9.80;99.90;;;;;;4974007;28;20475;-88
2021/12/13 08:31:28;;;;;;;30.52;15.43;;;9.00;99.90;;;;;;4974414;28;20101;-87
2021/12/13 08:34:01;;;;;;;29.75;15.38;;;9.30;99.90;;;;;;4972683;28;20137;-87
2021/12/13 08:36:34;;;;;;;27.52;15.30;;;9.10;99.90;;;;;;4973968;28;20038;-89
2021/12/13 08:39:11;;;;;;;31.15;16.10;;;9.10;99.90;;;;;;4974973;28;20058;-89
2021/12/13 08:41:45;;;;;;;22.95;15.57;;;9.10;99.90;;;;;;4973808;28;20045;-89
2021/12/13 08:44:11;;;;;;;31.88;16.85;;;9.10;99.90;;;;;;4974339;28;20070;-88
2021/12/13 08:46:47;;;;;;;31.67;16.40;;;9.10;99.90;;;;;;4974338;28;20445;-88
2021/12/13 08:49:20;;;;;;;25.10;17.00;;;9.10;99.90;;;;;;4973957;28;20106;-88
2021/12/13 08:52:03;;;;;;;26.60;16.02;;;9.20;99.90;;;;;;4974128;28;20576;-88
2021/12/13 08:54:41;;;;;;;31.48;16.75;;;9.20;99.90;;;;;;4974601;28;20061;-90
2021/12/13 08:57:32;;;;;;;34.10;17.92;;;9.60;99.90;;;;;;4974834;28;20628;-88
2021/12/13 09:00:03;;;;;;;27.65;16.23;;;9.20;99.90;;;;;;4974451;28;20073;-88
2021/12/13 09:02:36;;;;;;;29.23;16.98;;;9.20;99.90;;;;;;4972506;28;20046;-87
2021/12/13 09:05:19;;;;;;;25.55;17.50;;;9.20;99.90;;;;;;4974894;28;20061;-89
2021/12/13 09:08:13;;;;;;;27.08;16.92;;;9.20;99.90;;;;;;4974065;28;20055;-89
2021/12/13 09:11:05;;;;;;;31.25;18.30;;;9.30;99.90;;;;;;4974306;28;20088;-89
2021/12/13 09:13:52;;;;;;;27.20;18.10;;;9.30;99.90;;;;;;4973550;28;20057;-88
2021/12/13 09:16:21;;;;;;;28.48;18.00;;;9.30;99.90;;;;;;4968863;28;20054;-88
2021/12/13 09:19:09;;;;;;;29.02;18.23;;;9.30;99.90;;;;;;4972711;28;20413;-88
2021/12/13 09:21:50;;;;;;;27.65;18.35;;;9.40;99.90;;;;;;4973325;28;20073;-87
2021/12/13 09:24:28;;;;;;;28.00;18.75;;;9.40;99.90;;;;;;4956339;28;20053;-88
2021/12/13 09:27:15;;;;;;;29.83;18.75;;;9.40;99.90;;;;;;4957888;28;20046;-88
2021/12/13 09:30:08;;;;;;;33.50;18.90;;;9.40;99.90;;;;;;4957374;28;20215;-87
2021/12/13 09:32:40;;;;;;;28.53;19.17;;;9.50;99.90;;;;;;4955874;28;20061;-87
2021/12/13 09:35:32;;;;;;;28.98;17.67;;;9.50;99.90;;;;;;4972819;28;20074;-87
2021/12/13 09:38:21;;;;;;;26.63;18.95;;;9.50;99.90;;;;;;4956506;28;20042;-87
2021/12/13 09:41:03;;;;;;;30.15;17.88;;;9.00;99.90;;;;;;4956883;28;20517;-87
2021/12/13 09:43:42;;;;;;;27.17;17.25;;;9.50;99.90;;;;;;4972049;28;20139;-87
2021/12/13 09:46:10;;;;;;;26.42;19.05;;;9.50;99.90;;;;;;4972909;28;20125;-88
2021/12/13 09:48:43;;;;;;;26.42;17.67;;;9.50;99.90;;;;;;4971891;28;20084;-87
2021/12/13 09:51:17;;;;;;;26.40;16.48;;;9.60;99.90;;;;;;4972635;28;20054;-87
2021/12/13 09:53:48;;;;;;;26.45;17.95;;;9.70;99.90;;;;;;4971601;28;20049;-87
2021/12/13 09:56:18;;;;;;;27.60;17.33;;;9.50;99.90;;;;;;4971906;28;20073;-88
2021/12/13 09:58:52;;;;;;;30.05;18.10;;;9.60;99.90;;;;;;4972038;28;20042;-88
2021/12/13 10:01:25;;;;;;;28.65;17.90;;;9.50;99.90;;;;;;4973130;28;20069;-89
2021/12/13 10:04:04;;;;;;;26.50;18.52;;;9.60;99.90;;;;;;4972081;28;20053;-87
2021/12/13 10:06:56;;;;;;;28.60;17.77;;;9.60;99.90;;;;;;4971872;28;20046;-88
2021/12/13 10:09:43;;;;;;;26.40;16.13;;;9.60;99.90;;;;;;4972548;28;20053;-88
2021/12/13 10:12:30;;;;;;;25.15;15.50;;;9.50;99.90;;;;;;4972632;28;20501;-89
2021/12/13 10:15:12;;;;;;;22.38;15.73;;;9.60;99.90;;;;;;4973014;28;20047;-88
2021/12/13 10:17:47;;;;;;;22.48;15.70;;;9.70;99.90;;;;;;4972275;28;20050;-88
2021/12/13 10:20:29;;;;;;;20.40;14.38;;;9.70;99.90;;;;;;4971703;28;20042;-88
2021/12/13 10:22:55;;;;;;;26.83;15.95;;;9.70;99.90;;;;;;4972655;28;20051;-88
2021/12/13 10:25:32;;;;;;;22.42;15.60;;;9.70;99.90;;;;;;4972655;28;20054;-87
2021/12/13 10:28:21;;;;;;;24.67;14.73;;;10.10;99.90;;;;;;4959720;28;20042;-92
2021/12/13 10:30:53;;;;;;;24.15;14.82;;;9.60;99.90;;;;;;4956481;28;20516;-89
2021/12/13 10:33:24;;;;;;;19.60;14.85;;;9.60;99.90;;;;;;4954885;28;20038;-89
2021/12/13 10:35:52;;;;;;;26.23;15.45;;;9.60;99.90;;;;;;4956700;28;20042;-89
2021/12/13 10:38:30;;;;;;;20.17;14.40;;;9.70;99.90;;;;;;4956567;28;20529;-89
2021/12/13 10:41:08;;;;;;;20.60;13.70;;;9.70;99.90;;;;;;4956284;28;20129;-86
2021/12/13 10:43:51;;;;;;;21.77;14.38;;;9.90;99.90;;;;;;4955756;28;20047;-89
2021/12/13 10:46:23;;;;;;;21.08;14.10;;;10.60;99.90;;;;;;4956436;28;20409;-90
2021/12/13 10:49:06;;;;;;;19.92;14.18;;;9.80;99.90;;;;;;4955114;28;20556;-88
2021/12/13 10:51:55;;;;;;;24.13;13.82;;;9.80;99.90;;;;;;4956381;28;20057;-87
2021/12/13 10:54:41;;;;;;;22.77;13.60;;;9.90;99.90;;;;;;4955473;28;20050;-90
2021/12/13 10:57:27;;;;;;;23.27;13.23;;;10.10;99.90;;;;;;4956308;28;20043;-88
2021/12/13 10:59:57;;;;;;;19.25;12.45;;;9.90;99.90;;;;;;4957108;28;20167;-89
2021/12/13 11:02:34;;;;;;;22.00;13.15;;;9.90;99.90;;;;;;4955109;28;20051;-89
2021/12/13 11:05:03;;;;;;;23.55;12.75;;;9.90;99.90;;;;;;4957010;28;20406;-88
2021/12/13 11:07:39;;;;;;;20.55;13.18;;;9.90;99.90;;;;;;4956109;28;20051;-88
2021/12/13 11:10:25;;;;;;;20.45;14.43;;;9.90;99.90;;;;;;4959000;28;20054;-88
2021/12/13 11:12:53;;;;;;;19.05;13.27;;;9.90;99.90;;;;;;4959522;28;20174;-89
2021/12/13 11:15:28;;;;;;;27.67;13.02;;;10.40;99.90;;;;;;4959793;28;20089;-89
2021/12/13 11:18:06;;;;;;;21.08;13.63;;;9.90;99.90;;;;;;4940323;28;20491;-89
2021/12/13 11:20:47;;;;;;;24.10;13.90;;;9.90;99.90;;;;;;4956504;28;20042;-90
2021/12/13 11:23:31;;;;;;;28.23;13.88;;;9.90;99.90;;;;;;4967148;28;20052;-89
2021/12/13 11:26:05;;;;;;;24.42;14.25;;;9.90;99.90;;;;;;4965280;28;20050;-89
2021/12/13 11:28:44;;;;;;;21.17;13.43;;;9.80;99.90;;;;;;4936159;29;20086;-88
2021/12/13 11:31:29;;;;;;;25.63;15.15;;;9.80;99.90;;;;;;4955559;28;20082;-88
2021/12/13 11:33:59;;;;;;;24.88;13.93;;;9.90;99.90;;;;;;4955799;28;20081;-87
2021/12/13 11:37:17;;;;;;;22.63;14.65;;;9.90;99.90;;;;;;4955249;28;20134;-87
2021/12/13 11:40:03;;;;;;;22.63;14.40;;;9.90;99.90;;;;;;4956021;28;20062;-88
2021/12/13 11:43:10;;;;;;;18.83;13.45;;;9.90;99.90;;;;;;4955486;28;20042;-88
2021/12/13 11:46:16;;;;;;;21.27;14.02;;;9.80;99.90;;;;;;4939188;28;20073;-88
2021/12/13 11:48:44;;;;;;;20.60;14.23;;;9.90;99.90;;;;;;4954943;28;20077;-87
2021/12/13 11:51:42;;;;;;;21.23;13.85;;;10.20;99.90;;;;;;4955052;28;20073;-86
2021/12/13 11:54:11;;;;;;;24.63;15.15;;;9.90;99.90;;;;;;4944405;28;20438;-88
2021/12/13 11:57:31;;;;;;;25.80;14.00;;;9.90;99.90;;;;;;4958908;28;20038;-88
2021/12/13 12:00:28;;;;;;;25.55;14.35;;;9.90;99.90;;;;;;4974033;28;20066;-88
2021/12/13 12:03:42;;;;;;;22.33;14.48;;;9.90;99.90;;;;;;4958002;28;20243;-88
2021/12/13 12:06:08;;;;;;;21.65;14.10;;;9.90;99.90;;;;;;4957897;28;20042;-85
2021/12/13 12:09:05;;;;;;;23.42;13.82;;;10.00;99.90;;;;;;4957863;28;20050;-86
2021/12/13 12:12:15;;;;;;;23.67;13.27;;;10.00;99.90;;;;;;4958014;28;20046;-85
2021/12/13 12:14:41;;;;;;;27.30;14.65;;;10.00;99.90;;;;;;4958294;28;20050;-86
2021/12/13 12:17:08;;;;;;;20.60;14.35;;;10.10;99.90;;;;;;4957414;28;20494;-85
2021/12/13 12:19:46;;;;;;;22.05;13.60;;;10.10;99.90;;;;;;4956876;28;20398;-86
2021/12/13 12:22:17;;;;;;;27.17;14.35;;;10.10;99.90;;;;;;4957781;28;20068;-85
2021/12/13 12:25:00;;;;;;;20.42;14.30;;;10.10;99.90;;;;;;4958442;28;20114;-86
2021/12/13 12:27:29;;;;;;;23.92;14.40;;;10.20;99.90;;;;;;4940020;28;20047;-86
2021/12/13 12:30:13;;;;;;;25.10;14.13;;;10.10;99.90;;;;;;4970987;28;20394;-86
2021/12/13 12:32:54;;;;;;;31.75;16.35;;;10.10;99.90;;;;;;4969410;28;20231;-86
2021/12/13 12:35:25;;;;;;;27.33;14.98;;;10.10;99.90;;;;;;4939390;28;20043;-86
2021/12/13 12:38:10;;;;;;;24.83;14.50;;;10.10;99.90;;;;;;4970330;28;20054;-88
2021/12/13 12:40:55;;;;;;;25.73;16.50;;;10.00;99.90;;;;;;4969915;28;20046;-87
2021/12/13 12:43:25;;;;;;;29.75;16.65;;;10.00;99.90;;;;;;4971618;28;20055;-88
2021/12/13 12:46:13;;;;;;;26.63;15.73;;;10.00;99.90;;;;;;4973827;28;20136;-88
2021/12/13 12:48:58;;;;;;;30.58;16.35;;;10.00;99.90;;;;;;4972605;28;20089;-87
2021/12/13 12:51:43;;;;;;;30.23;16.73;;;9.90;99.90;;;;;;4974112;28;20549;-88
2021/12/13 12:54:24;;;;;;;28.45;16.55;;;10.40;99.90;;;;;;4973351;28;20053;-88
2021/12/13 12:56:53;;;;;;;29.17;16.42;;;9.90;99.90;;;;;;4973416;28;20474;-88
2021/12/13 12:59:22;;;;;;;39.72;18.90;;;9.90;99.90;;;;;;4973960;28;20068;-85
2021/12/13 13:01:58;;;;;;;29.67;16.85;;;9.90;99.90;;;;;;4972004;28;20132;-86
2021/12/13 13:04:36;;;;;;;27.83;15.77;;;9.80;99.90;;;;;;4973724;28;20517;-86
2021/12/13 13:07:24;;;;;;;30.52;16.75;;;9.80;99.90;;;;;;4974044;28;20513;-86
2021/12/13 13:10:20;;;;;;;32.72;18.10;;;9.80;99.90;;;;;;4972847;28;20042;-86
2021/12/13 13:12:49;;;;;;;34.67;17.83;;;9.80;99.90;;;;;;4957205;28;20046;-86
2021/12/13 13:15:36;;;;;;;34.97;18.85;;;9.80;99.90;;;;;;4972581;28;20042;-85
2021/12/13 13:18:05;;;;;;;39.45;18.45;;;9.80;99.90;;;;;;4969493;28;20051;-86
2021/12/13 13:20:38;;;;;;;38.97;18.48;;;9.80;99.90;;;;;;4954352;28;20082;-86
2021/12/13 13:23:12;;;;;;;37.03;19.95;;;9.80;99.90;;;;;;4953940;28;20129;-89
2021/12/13 13:26:03;;;;;;;38.10;20.80;;;9.80;99.90;;;;;;4953451;28;20055;-87
2021/12/13 13:28:33;;;;;;;34.00;18.92;;;9.80;99.90;;;;;;4953803;28;20082;-88
2021/12/13 13:31:20;;;;;;;37.45;19.23;;;9.80;99.90;;;;;;4954134;28;20426;-87
2021/12/13 13:34:08;;;;;;;35.55;19.13;;;9.90;99.90;;;;;;4952672;28;20051;-86